sensor_id;sensor_type;location;lat;lon;timestamp;P1;durP1;ratioP1;P2;durP2;ratioP2
70414;SDS011;57837;52.064;113.478;2023-06-14T00:00:07;6.18;;;2.20;;
70414;SDS011;57837;52.064;113.478;2023-06-14T00:03:11;5.78;;;2.70;;
70414;SDS011;57837;52.064;113.478;2023-06-14T00:06:15;5.68;;;2.63;;
70414;SDS011;57837;52.064;113.478;2023-06-14T00:09:18;5.77;;;2.27;;
70414;SDS011;57837;52.064;113.478;2023-06-14T00:12:21;8.18;;;2.65;;
70414;SDS011;57837;52.064;113.478;2023-06-14T00:15:27;5.68;;;2.58;;
70414;SDS011;57837;52.064;113.478;2023-06-14T00:18:30;4.43;;;2.60;;
70414;SDS011;57837;52.064;113.478;2023-06-14T00:21:33;5.90;;;2.50;;
70414;SDS011;57837;52.064;113.478;2023-06-14T00:24:38;3.40;;;2.07;;
70414;SDS011;57837;52.064;113.478;2023-06-14T00:27:42;6.78;;;2.42;;
70414;SDS011;57837;52.064;113.478;2023-06-14T00:30:46;4.15;;;2.42;;
70414;SDS011;57837;52.064;113.478;2023-06-14T00:33:49;9.10;;;2.80;;
70414;SDS011;57837;52.064;113.478;2023-06-14T00:36:53;20.95;;;12.52;;
70414;SDS011;57837;52.064;113.478;2023-06-14T00:39:57;5.53;;;3.03;;
70414;SDS011;57837;52.064;113.478;2023-06-14T00:43:01;12.85;;;2.80;;
70414;SDS011;57837;52.064;113.478;2023-06-14T00:46:04;5.72;;;2.70;;
70414;SDS011;57837;52.064;113.478;2023-06-14T00:49:10;7.00;;;2.20;;
70414;SDS011;57837;52.064;113.478;2023-06-14T00:52:15;14.65;;;2.83;;
70414;SDS011;57837;52.064;113.478;2023-06-14T00:55:18;8.53;;;2.40;;
70414;SDS011;57837;52.064;113.478;2023-06-14T00:58:22;17.73;;;3.10;;
70414;SDS011;57837;52.064;113.478;2023-06-14T01:01:25;10.93;;;3.50;;
70414;SDS011;57837;52.064;113.478;2023-06-14T01:05:13;4.55;;;2.72;;
70414;SDS011;57837;52.064;113.478;2023-06-14T01:11:59;75.27;;;7.33;;
70414;SDS011;57837;52.064;113.478;2023-06-14T01:15:08;32.78;;;3.85;;
70414;SDS011;57837;52.064;113.478;2023-06-14T01:18:13;9.25;;;2.03;;
70414;SDS011;57837;52.064;113.478;2023-06-14T01:21:23;7.95;;;2.53;;
70414;SDS011;57837;52.064;113.478;2023-06-14T01:24:27;5.68;;;2.40;;
70414;SDS011;57837;52.064;113.478;2023-06-14T01:27:34;6.13;;;2.70;;
70414;SDS011;57837;52.064;113.478;2023-06-14T01:30:41;5.40;;;2.08;;
70414;SDS011;57837;52.064;113.478;2023-06-14T01:33:49;4.88;;;2.45;;
70414;SDS011;57837;52.064;113.478;2023-06-14T01:36:54;3.30;;;2.20;;
70414;SDS011;57837;52.064;113.478;2023-06-14T01:39:59;8.05;;;2.30;;
70414;SDS011;57837;52.064;113.478;2023-06-14T01:43:04;8.03;;;2.97;;
70414;SDS011;57837;52.064;113.478;2023-06-14T01:46:10;6.45;;;2.70;;
70414;SDS011;57837;52.064;113.478;2023-06-14T01:49:16;6.90;;;2.30;;
70414;SDS011;57837;52.064;113.478;2023-06-14T01:52:21;7.60;;;2.42;;
70414;SDS011;57837;52.064;113.478;2023-06-14T01:55:27;4.53;;;2.33;;
70414;SDS011;57837;52.064;113.478;2023-06-14T01:58:31;5.63;;;2.43;;
70414;SDS011;57837;52.064;113.478;2023-06-14T02:01:36;5.40;;;2.55;;
70414;SDS011;57837;52.064;113.478;2023-06-14T02:04:40;9.98;;;2.42;;
70414;SDS011;57837;52.064;113.478;2023-06-14T02:07:45;5.72;;;2.40;;
70414;SDS011;57837;52.064;113.478;2023-06-14T02:10:52;4.85;;;2.50;;
70414;SDS011;57837;52.064;113.478;2023-06-14T02:13:56;5.83;;;2.30;;
70414;SDS011;57837;52.064;113.478;2023-06-14T02:16:59;7.18;;;2.67;;
70414;SDS011;57837;52.064;113.478;2023-06-14T02:20:04;21.30;;;13.20;;
70414;SDS011;57837;52.064;113.478;2023-06-14T02:23:09;6.05;;;3.33;;
70414;SDS011;57837;52.064;113.478;2023-06-14T02:26:12;6.50;;;2.58;;
70414;SDS011;57837;52.064;113.478;2023-06-14T02:29:16;7.80;;;2.50;;
70414;SDS011;57837;52.064;113.478;2023-06-14T02:32:20;7.03;;;2.85;;
70414;SDS011;57837;52.064;113.478;2023-06-14T02:35:24;9.63;;;2.60;;
70414;SDS011;57837;52.064;113.478;2023-06-14T02:38:30;6.07;;;2.30;;
70414;SDS011;57837;52.064;113.478;2023-06-14T02:41:34;6.07;;;2.63;;
70414;SDS011;57837;52.064;113.478;2023-06-14T02:44:38;9.60;;;2.90;;
70414;SDS011;57837;52.064;113.478;2023-06-14T02:47:43;9.23;;;2.80;;
70414;SDS011;57837;52.064;113.478;2023-06-14T02:50:47;10.45;;;2.30;;
70414;SDS011;57837;52.064;113.478;2023-06-14T02:53:51;5.82;;;2.40;;
70414;SDS011;57837;52.064;113.478;2023-06-14T02:56:54;6.22;;;2.58;;
70414;SDS011;57837;52.064;113.478;2023-06-14T02:59:58;6.80;;;2.03;;
70414;SDS011;57837;52.064;113.478;2023-06-14T03:03:06;7.35;;;2.60;;
70414;SDS011;57837;52.064;113.478;2023-06-14T03:06:23;10.00;;;2.42;;
70414;SDS011;57837;52.064;113.478;2023-06-14T03:09:28;6.43;;;1.80;;
70414;SDS011;57837;52.064;113.478;2023-06-14T03:12:31;4.80;;;1.70;;
70414;SDS011;57837;52.064;113.478;2023-06-14T03:15:34;9.93;;;2.17;;
70414;SDS011;57837;52.064;113.478;2023-06-14T03:18:39;7.22;;;2.20;;
70414;SDS011;57837;52.064;113.478;2023-06-14T03:21:42;8.32;;;2.60;;
70414;SDS011;57837;52.064;113.478;2023-06-14T03:24:47;5.50;;;1.95;;
70414;SDS011;57837;52.064;113.478;2023-06-14T03:27:50;4.15;;;1.95;;
70414;SDS011;57837;52.064;113.478;2023-06-14T03:30:55;4.20;;;1.80;;
70414;SDS011;57837;52.064;113.478;2023-06-14T03:34:05;3.47;;;1.30;;
70414;SDS011;57837;52.064;113.478;2023-06-14T03:37:09;5.47;;;1.77;;
70414;SDS011;57837;52.064;113.478;2023-06-14T03:40:12;5.40;;;2.20;;
70414;SDS011;57837;52.064;113.478;2023-06-14T03:43:22;3.72;;;1.83;;
70414;SDS011;57837;52.064;113.478;2023-06-14T03:46:26;16.80;;;3.07;;
70414;SDS011;57837;52.064;113.478;2023-06-14T03:49:29;3.22;;;1.80;;
70414;SDS011;57837;52.064;113.478;2023-06-14T03:52:33;3.60;;;1.83;;
70414;SDS011;57837;52.064;113.478;2023-06-14T03:55:36;3.92;;;1.90;;
70414;SDS011;57837;52.064;113.478;2023-06-14T03:59:08;6.18;;;2.08;;
70414;SDS011;57837;52.064;113.478;2023-06-14T04:02:12;2.63;;;1.77;;
70414;SDS011;57837;52.064;113.478;2023-06-14T04:05:18;3.97;;;1.67;;
70414;SDS011;57837;52.064;113.478;2023-06-14T04:08:24;8.07;;;1.95;;
70414;SDS011;57837;52.064;113.478;2023-06-14T04:11:27;4.55;;;1.70;;
70414;SDS011;57837;52.064;113.478;2023-06-14T04:14:32;2.97;;;1.70;;
70414;SDS011;57837;52.064;113.478;2023-06-14T04:17:36;3.37;;;1.90;;
70414;SDS011;57837;52.064;113.478;2023-06-14T04:20:41;3.42;;;1.65;;
70414;SDS011;57837;52.064;113.478;2023-06-14T04:23:44;9.23;;;2.25;;
70414;SDS011;57837;52.064;113.478;2023-06-14T04:26:49;3.45;;;1.90;;
70414;SDS011;57837;52.064;113.478;2023-06-14T04:29:55;3.58;;;1.83;;
70414;SDS011;57837;52.064;113.478;2023-06-14T04:33:12;5.40;;;2.00;;
70414;SDS011;57837;52.064;113.478;2023-06-14T04:36:17;9.13;;;2.00;;
70414;SDS011;57837;52.064;113.478;2023-06-14T04:39:22;7.03;;;2.75;;
70414;SDS011;57837;52.064;113.478;2023-06-14T04:42:27;7.13;;;1.95;;
70414;SDS011;57837;52.064;113.478;2023-06-14T04:45:34;4.65;;;2.15;;
70414;SDS011;57837;52.064;113.478;2023-06-14T04:48:42;4.40;;;1.67;;
70414;SDS011;57837;52.064;113.478;2023-06-14T04:51:45;9.35;;;2.20;;
70414;SDS011;57837;52.064;113.478;2023-06-14T04:54:54;3.75;;;1.55;;
70414;SDS011;57837;52.064;113.478;2023-06-14T04:57:59;3.95;;;1.55;;
70414;SDS011;57837;52.064;113.478;2023-06-14T05:01:03;2.25;;;1.45;;
70414;SDS011;57837;52.064;113.478;2023-06-14T05:04:06;4.37;;;1.63;;
70414;SDS011;57837;52.064;113.478;2023-06-14T05:07:10;3.22;;;1.60;;
70414;SDS011;57837;52.064;113.478;2023-06-14T05:10:13;3.42;;;1.70;;
70414;SDS011;57837;52.064;113.478;2023-06-14T05:13:16;4.18;;;1.80;;
70414;SDS011;57837;52.064;113.478;2023-06-14T05:16:21;3.03;;;1.70;;
70414;SDS011;57837;52.064;113.478;2023-06-14T05:19:28;4.57;;;1.80;;
70414;SDS011;57837;52.064;113.478;2023-06-14T05:22:31;7.22;;;1.90;;
70414;SDS011;57837;52.064;113.478;2023-06-14T05:25:35;6.55;;;1.50;;
70414;SDS011;57837;52.064;113.478;2023-06-14T05:28:38;2.45;;;1.40;;
70414;SDS011;57837;52.064;113.478;2023-06-14T05:31:42;4.97;;;2.30;;
70414;SDS011;57837;52.064;113.478;2023-06-14T05:34:46;4.50;;;2.10;;
70414;SDS011;57837;52.064;113.478;2023-06-14T05:37:50;3.10;;;1.98;;
70414;SDS011;57837;52.064;113.478;2023-06-14T05:40:53;4.40;;;1.73;;
70414;SDS011;57837;52.064;113.478;2023-06-14T05:43:57;3.65;;;1.70;;
70414;SDS011;57837;52.064;113.478;2023-06-14T05:47:02;2.78;;;1.70;;
70414;SDS011;57837;52.064;113.478;2023-06-14T05:50:06;5.10;;;2.00;;
70414;SDS011;57837;52.064;113.478;2023-06-14T05:53:10;4.57;;;2.53;;
70414;SDS011;57837;52.064;113.478;2023-06-14T05:56:15;2.67;;;1.80;;
70414;SDS011;57837;52.064;113.478;2023-06-14T05:59:21;3.72;;;1.80;;
70414;SDS011;57837;52.064;113.478;2023-06-14T06:02:25;10.35;;;7.40;;
70414;SDS011;57837;52.064;113.478;2023-06-14T06:05:29;4.03;;;1.93;;
70414;SDS011;57837;52.064;113.478;2023-06-14T06:08:33;4.30;;;1.83;;
70414;SDS011;57837;52.064;113.478;2023-06-14T06:11:37;3.97;;;1.88;;
70414;SDS011;57837;52.064;113.478;2023-06-14T06:14:54;3.92;;;1.88;;
70414;SDS011;57837;52.064;113.478;2023-06-14T06:17:57;3.90;;;1.67;;
70414;SDS011;57837;52.064;113.478;2023-06-14T06:21:00;4.33;;;1.90;;
70414;SDS011;57837;52.064;113.478;2023-06-14T06:24:06;4.57;;;2.63;;
70414;SDS011;57837;52.064;113.478;2023-06-14T06:27:09;9.23;;;6.10;;
70414;SDS011;57837;52.064;113.478;2023-06-14T06:30:13;3.63;;;2.00;;
70414;SDS011;57837;52.064;113.478;2023-06-14T06:33:17;5.22;;;1.88;;
70414;SDS011;57837;52.064;113.478;2023-06-14T06:36:21;3.07;;;1.60;;
70414;SDS011;57837;52.064;113.478;2023-06-14T06:39:26;4.90;;;1.90;;
70414;SDS011;57837;52.064;113.478;2023-06-14T06:42:30;4.65;;;1.65;;
70414;SDS011;57837;52.064;113.478;2023-06-14T06:45:36;2.78;;;1.73;;
70414;SDS011;57837;52.064;113.478;2023-06-14T06:48:40;3.83;;;1.67;;
70414;SDS011;57837;52.064;113.478;2023-06-14T06:51:43;3.17;;;1.60;;
70414;SDS011;57837;52.064;113.478;2023-06-14T06:54:46;2.95;;;1.90;;
70414;SDS011;57837;52.064;113.478;2023-06-14T06:57:51;4.43;;;2.03;;
70414;SDS011;57837;52.064;113.478;2023-06-14T07:00:56;3.33;;;1.83;;
70414;SDS011;57837;52.064;113.478;2023-06-14T07:04:00;6.15;;;1.88;;
70414;SDS011;57837;52.064;113.478;2023-06-14T07:07:04;3.57;;;1.80;;
70414;SDS011;57837;52.064;113.478;2023-06-14T07:10:08;4.13;;;1.95;;
70414;SDS011;57837;52.064;113.478;2023-06-14T07:13:13;4.43;;;1.88;;
70414;SDS011;57837;52.064;113.478;2023-06-14T07:16:16;4.55;;;1.92;;
70414;SDS011;57837;52.064;113.478;2023-06-14T07:19:19;4.97;;;1.63;;
70414;SDS011;57837;52.064;113.478;2023-06-14T07:22:24;3.87;;;2.00;;
70414;SDS011;57837;52.064;113.478;2023-06-14T07:25:27;3.35;;;1.92;;
70414;SDS011;57837;52.064;113.478;2023-06-14T07:28:32;2.55;;;1.50;;
70414;SDS011;57837;52.064;113.478;2023-06-14T07:31:36;5.60;;;1.77;;
70414;SDS011;57837;52.064;113.478;2023-06-14T07:34:40;3.78;;;1.75;;
70414;SDS011;57837;52.064;113.478;2023-06-14T07:37:44;5.03;;;1.80;;
70414;SDS011;57837;52.064;113.478;2023-06-14T07:40:50;4.53;;;1.85;;
70414;SDS011;57837;52.064;113.478;2023-06-14T07:43:53;9.65;;;1.80;;
70414;SDS011;57837;52.064;113.478;2023-06-14T07:46:57;6.53;;;2.20;;
70414;SDS011;57837;52.064;113.478;2023-06-14T07:50:02;7.90;;;1.73;;
70414;SDS011;57837;52.064;113.478;2023-06-14T07:53:08;6.13;;;1.80;;
70414;SDS011;57837;52.064;113.478;2023-06-14T07:56:12;7.78;;;1.75;;
70414;SDS011;57837;52.064;113.478;2023-06-14T07:59:16;9.30;;;1.95;;
70414;SDS011;57837;52.064;113.478;2023-06-14T08:02:19;4.07;;;1.60;;
70414;SDS011;57837;52.064;113.478;2023-06-14T08:05:23;5.32;;;1.60;;
70414;SDS011;57837;52.064;113.478;2023-06-14T08:08:26;11.33;;;1.97;;
70414;SDS011;57837;52.064;113.478;2023-06-14T08:11:31;7.38;;;2.13;;
70414;SDS011;57837;52.064;113.478;2023-06-14T08:14:36;9.38;;;4.55;;
70414;SDS011;57837;52.064;113.478;2023-06-14T08:17:41;5.18;;;2.97;;
70414;SDS011;57837;52.064;113.478;2023-06-14T08:20:46;6.25;;;1.67;;
70414;SDS011;57837;52.064;113.478;2023-06-14T08:23:50;3.53;;;1.53;;
70414;SDS011;57837;52.064;113.478;2023-06-14T08:26:56;7.88;;;1.67;;
70414;SDS011;57837;52.064;113.478;2023-06-14T08:30:00;5.32;;;1.70;;
70414;SDS011;57837;52.064;113.478;2023-06-14T08:33:04;6.00;;;1.77;;
70414;SDS011;57837;52.064;113.478;2023-06-14T08:36:18;4.78;;;1.80;;
70414;SDS011;57837;52.064;113.478;2023-06-14T08:39:22;2.60;;;1.40;;
70414;SDS011;57837;52.064;113.478;2023-06-14T08:42:26;9.38;;;2.15;;
70414;SDS011;57837;52.064;113.478;2023-06-14T08:45:34;6.15;;;3.03;;
70414;SDS011;57837;52.064;113.478;2023-06-14T08:48:38;5.50;;;1.83;;
70414;SDS011;57837;52.064;113.478;2023-06-14T08:51:44;5.32;;;1.70;;
70414;SDS011;57837;52.064;113.478;2023-06-14T08:54:50;8.40;;;2.23;;
70414;SDS011;57837;52.064;113.478;2023-06-14T08:57:54;7.68;;;1.60;;
70414;SDS011;57837;52.064;113.478;2023-06-14T09:01:06;4.95;;;1.70;;
70414;SDS011;57837;52.064;113.478;2023-06-14T09:04:10;8.55;;;1.60;;
70414;SDS011;57837;52.064;113.478;2023-06-14T09:07:14;7.32;;;1.70;;
70414;SDS011;57837;52.064;113.478;2023-06-14T09:10:17;18.27;;;2.67;;
70414;SDS011;57837;52.064;113.478;2023-06-14T09:13:21;5.05;;;1.70;;
70414;SDS011;57837;52.064;113.478;2023-06-14T09:16:32;7.55;;;2.83;;
70414;SDS011;57837;52.064;113.478;2023-06-14T09:19:38;6.68;;;1.92;;
70414;SDS011;57837;52.064;113.478;2023-06-14T09:22:42;8.25;;;1.85;;
70414;SDS011;57837;52.064;113.478;2023-06-14T09:25:46;3.13;;;1.80;;
70414;SDS011;57837;52.064;113.478;2023-06-14T09:28:51;3.15;;;1.63;;
70414;SDS011;57837;52.064;113.478;2023-06-14T09:32:04;2.95;;;1.50;;
70414;SDS011;57837;52.064;113.478;2023-06-14T09:35:08;3.47;;;1.25;;
70414;SDS011;57837;52.064;113.478;2023-06-14T09:38:12;5.57;;;1.70;;
70414;SDS011;57837;52.064;113.478;2023-06-14T09:41:18;7.20;;;2.33;;
70414;SDS011;57837;52.064;113.478;2023-06-14T09:44:22;6.53;;;2.60;;
70414;SDS011;57837;52.064;113.478;2023-06-14T09:47:34;10.20;;;1.70;;
70414;SDS011;57837;52.064;113.478;2023-06-14T09:50:39;7.70;;;1.70;;
70414;SDS011;57837;52.064;113.478;2023-06-14T09:53:46;11.95;;;2.05;;
70414;SDS011;57837;52.064;113.478;2023-06-14T09:56:52;4.90;;;2.63;;
70414;SDS011;57837;52.064;113.478;2023-06-14T09:59:59;12.27;;;2.10;;
70414;SDS011;57837;52.064;113.478;2023-06-14T10:03:13;8.50;;;2.65;;
70414;SDS011;57837;52.064;113.478;2023-06-14T10:06:22;10.15;;;2.45;;
70414;SDS011;57837;52.064;113.478;2023-06-14T10:09:27;9.00;;;1.83;;
70414;SDS011;57837;52.064;113.478;2023-06-14T10:12:34;10.27;;;1.77;;
70414;SDS011;57837;52.064;113.478;2023-06-14T10:19:20;6.13;;;1.77;;
70414;SDS011;57837;52.064;113.478;2023-06-14T10:22:38;5.22;;;1.80;;
70414;SDS011;57837;52.064;113.478;2023-06-14T10:25:57;6.18;;;2.90;;
70414;SDS011;57837;52.064;113.478;2023-06-14T10:29:08;9.97;;;2.43;;
70414;SDS011;57837;52.064;113.478;2023-06-14T10:32:12;8.88;;;3.65;;
70414;SDS011;57837;52.064;113.478;2023-06-14T10:35:18;11.77;;;3.83;;
70414;SDS011;57837;52.064;113.478;2023-06-14T10:38:22;15.98;;;2.72;;
70414;SDS011;57837;52.064;113.478;2023-06-14T10:41:36;15.15;;;3.67;;
70414;SDS011;57837;52.064;113.478;2023-06-14T10:47:45;10.23;;;3.67;;
70414;SDS011;57837;52.064;113.478;2023-06-14T10:51:04;7.55;;;3.30;;
70414;SDS011;57837;52.064;113.478;2023-06-14T10:54:09;5.80;;;2.55;;
70414;SDS011;57837;52.064;113.478;2023-06-14T10:57:16;10.82;;;2.83;;
70414;SDS011;57837;52.064;113.478;2023-06-14T11:00:24;8.57;;;3.37;;
70414;SDS011;57837;52.064;113.478;2023-06-14T11:03:43;8.23;;;3.10;;
70414;SDS011;57837;52.064;113.478;2023-06-14T11:06:52;8.85;;;3.65;;
70414;SDS011;57837;52.064;113.478;2023-06-14T11:13:44;9.85;;;3.00;;
70414;SDS011;57837;52.064;113.478;2023-06-14T11:16:50;20.63;;;3.60;;
70414;SDS011;57837;52.064;113.478;2023-06-14T11:20:07;12.85;;;4.03;;
70414;SDS011;57837;52.064;113.478;2023-06-14T11:23:12;8.73;;;1.83;;
70414;SDS011;57837;52.064;113.478;2023-06-14T11:26:16;6.45;;;1.92;;
70414;SDS011;57837;52.064;113.478;2023-06-14T11:29:29;6.68;;;1.92;;
70414;SDS011;57837;52.064;113.478;2023-06-14T11:32:35;6.23;;;2.70;;
70414;SDS011;57837;52.064;113.478;2023-06-14T11:35:44;6.80;;;3.08;;
70414;SDS011;57837;52.064;113.478;2023-06-14T11:38:49;7.75;;;2.05;;
70414;SDS011;57837;52.064;113.478;2023-06-14T11:41:55;7.75;;;2.28;;
70414;SDS011;57837;52.064;113.478;2023-06-14T11:45:00;13.82;;;3.58;;
70414;SDS011;57837;52.064;113.478;2023-06-14T11:48:11;7.90;;;3.20;;
70414;SDS011;57837;52.064;113.478;2023-06-14T11:51:15;12.07;;;3.03;;
70414;SDS011;57837;52.064;113.478;2023-06-14T11:54:20;13.55;;;5.85;;
70414;SDS011;57837;52.064;113.478;2023-06-14T11:57:24;14.85;;;5.90;;
70414;SDS011;57837;52.064;113.478;2023-06-14T12:00:28;9.82;;;4.03;;
70414;SDS011;57837;52.064;113.478;2023-06-14T12:03:35;22.40;;;3.67;;
70414;SDS011;57837;52.064;113.478;2023-06-14T12:06:39;24.25;;;3.20;;
70414;SDS011;57837;52.064;113.478;2023-06-14T12:09:43;7.65;;;2.95;;
70414;SDS011;57837;52.064;113.478;2023-06-14T12:13:10;5.72;;;3.60;;
70414;SDS011;57837;52.064;113.478;2023-06-14T12:16:17;9.18;;;4.25;;
70414;SDS011;57837;52.064;113.478;2023-06-14T12:19:25;14.37;;;5.20;;
70414;SDS011;57837;52.064;113.478;2023-06-14T12:22:29;11.00;;;5.10;;
70414;SDS011;57837;52.064;113.478;2023-06-14T12:25:34;9.10;;;4.43;;
70414;SDS011;57837;52.064;113.478;2023-06-14T12:28:40;7.70;;;3.25;;
70414;SDS011;57837;52.064;113.478;2023-06-14T12:31:47;7.72;;;3.20;;
70414;SDS011;57837;52.064;113.478;2023-06-14T12:34:51;7.07;;;3.90;;
70414;SDS011;57837;52.064;113.478;2023-06-14T12:37:56;11.52;;;4.30;;
70414;SDS011;57837;52.064;113.478;2023-06-14T12:41:02;8.43;;;3.92;;
70414;SDS011;57837;52.064;113.478;2023-06-14T12:44:07;6.25;;;3.50;;
70414;SDS011;57837;52.064;113.478;2023-06-14T12:47:10;13.63;;;4.55;;
70414;SDS011;57837;52.064;113.478;2023-06-14T12:50:15;12.33;;;3.83;;
70414;SDS011;57837;52.064;113.478;2023-06-14T12:53:19;14.02;;;3.75;;
70414;SDS011;57837;52.064;113.478;2023-06-14T12:56:24;33.58;;;18.77;;
70414;SDS011;57837;52.064;113.478;2023-06-14T12:59:27;12.07;;;5.93;;
70414;SDS011;57837;52.064;113.478;2023-06-14T13:02:37;13.80;;;5.33;;
70414;SDS011;57837;52.064;113.478;2023-06-14T13:05:42;14.37;;;5.03;;
70414;SDS011;57837;52.064;113.478;2023-06-14T13:08:46;13.43;;;5.40;;
70414;SDS011;57837;52.064;113.478;2023-06-14T13:11:49;22.75;;;6.82;;
70414;SDS011;57837;52.064;113.478;2023-06-14T13:14:53;14.60;;;5.70;;
70414;SDS011;57837;52.064;113.478;2023-06-14T13:17:59;12.23;;;5.03;;
70414;SDS011;57837;52.064;113.478;2023-06-14T13:21:03;9.90;;;4.27;;
70414;SDS011;57837;52.064;113.478;2023-06-14T13:24:07;15.20;;;3.95;;
70414;SDS011;57837;52.064;113.478;2023-06-14T13:27:11;8.93;;;3.78;;
70414;SDS011;57837;52.064;113.478;2023-06-14T13:30:20;15.60;;;4.32;;
70414;SDS011;57837;52.064;113.478;2023-06-14T13:33:24;11.97;;;4.60;;
70414;SDS011;57837;52.064;113.478;2023-06-14T13:36:29;16.47;;;4.87;;
70414;SDS011;57837;52.064;113.478;2023-06-14T13:39:32;20.45;;;6.80;;
70414;SDS011;57837;52.064;113.478;2023-06-14T13:42:36;26.10;;;11.13;;
70414;SDS011;57837;52.064;113.478;2023-06-14T13:45:41;27.80;;;12.35;;
70414;SDS011;57837;52.064;113.478;2023-06-14T13:48:45;22.50;;;11.43;;
70414;SDS011;57837;52.064;113.478;2023-06-14T13:51:51;20.20;;;9.37;;
70414;SDS011;57837;52.064;113.478;2023-06-14T13:54:54;18.60;;;7.28;;
70414;SDS011;57837;52.064;113.478;2023-06-14T13:57:59;15.52;;;7.45;;
70414;SDS011;57837;52.064;113.478;2023-06-14T14:01:03;19.50;;;7.43;;
70414;SDS011;57837;52.064;113.478;2023-06-14T14:04:07;16.43;;;7.77;;
70414;SDS011;57837;52.064;113.478;2023-06-14T14:07:11;21.20;;;7.70;;
70414;SDS011;57837;52.064;113.478;2023-06-14T14:10:15;27.45;;;7.82;;
70414;SDS011;57837;52.064;113.478;2023-06-14T14:13:19;24.17;;;7.93;;
70414;SDS011;57837;52.064;113.478;2023-06-14T14:16:24;14.00;;;6.60;;
70414;SDS011;57837;52.064;113.478;2023-06-14T14:19:29;15.40;;;5.70;;
70414;SDS011;57837;52.064;113.478;2023-06-14T14:22:33;16.97;;;6.30;;
70414;SDS011;57837;52.064;113.478;2023-06-14T14:25:40;12.85;;;5.93;;
70414;SDS011;57837;52.064;113.478;2023-06-14T14:28:44;9.35;;;4.82;;
70414;SDS011;57837;52.064;113.478;2023-06-14T14:31:49;12.75;;;5.15;;
70414;SDS011;57837;52.064;113.478;2023-06-14T14:34:53;9.40;;;4.80;;
70414;SDS011;57837;52.064;113.478;2023-06-14T14:37:56;14.57;;;4.60;;
70414;SDS011;57837;52.064;113.478;2023-06-14T14:40:59;12.35;;;4.65;;
70414;SDS011;57837;52.064;113.478;2023-06-14T14:44:04;16.48;;;5.10;;
70414;SDS011;57837;52.064;113.478;2023-06-14T14:47:08;13.43;;;5.13;;
70414;SDS011;57837;52.064;113.478;2023-06-14T14:50:11;11.53;;;4.77;;
70414;SDS011;57837;52.064;113.478;2023-06-14T14:53:14;6.90;;;3.67;;
70414;SDS011;57837;52.064;113.478;2023-06-14T14:56:18;8.75;;;4.70;;
70414;SDS011;57837;52.064;113.478;2023-06-14T14:59:22;10.50;;;4.32;;
70414;SDS011;57837;52.064;113.478;2023-06-14T15:02:25;9.48;;;3.60;;
70414;SDS011;57837;52.064;113.478;2023-06-14T15:05:28;7.10;;;3.70;;
70414;SDS011;57837;52.064;113.478;2023-06-14T15:08:31;6.67;;;3.17;;
70414;SDS011;57837;52.064;113.478;2023-06-14T15:11:35;7.90;;;3.85;;
70414;SDS011;57837;52.064;113.478;2023-06-14T15:14:38;11.73;;;3.47;;
70414;SDS011;57837;52.064;113.478;2023-06-14T15:17:43;9.82;;;5.05;;
70414;SDS011;57837;52.064;113.478;2023-06-14T15:20:47;12.67;;;4.40;;
70414;SDS011;57837;52.064;113.478;2023-06-14T15:23:53;12.93;;;4.90;;
70414;SDS011;57837;52.064;113.478;2023-06-14T15:26:57;14.35;;;5.38;;
70414;SDS011;57837;52.064;113.478;2023-06-14T15:30:01;13.98;;;5.30;;
70414;SDS011;57837;52.064;113.478;2023-06-14T15:33:06;15.25;;;5.10;;
70414;SDS011;57837;52.064;113.478;2023-06-14T15:36:11;11.97;;;5.47;;
70414;SDS011;57837;52.064;113.478;2023-06-14T15:39:14;11.97;;;4.77;;
70414;SDS011;57837;52.064;113.478;2023-06-14T15:42:18;12.95;;;5.07;;
70414;SDS011;57837;52.064;113.478;2023-06-14T15:45:22;12.60;;;5.10;;
70414;SDS011;57837;52.064;113.478;2023-06-14T15:48:26;14.63;;;4.82;;
70414;SDS011;57837;52.064;113.478;2023-06-14T15:51:30;16.37;;;4.73;;
70414;SDS011;57837;52.064;113.478;2023-06-14T15:54:34;11.57;;;4.90;;
70414;SDS011;57837;52.064;113.478;2023-06-14T15:57:38;14.80;;;5.75;;
70414;SDS011;57837;52.064;113.478;2023-06-14T16:00:42;12.43;;;5.22;;
70414;SDS011;57837;52.064;113.478;2023-06-14T16:03:46;16.20;;;7.30;;
70414;SDS011;57837;52.064;113.478;2023-06-14T16:06:52;13.83;;;5.03;;
70414;SDS011;57837;52.064;113.478;2023-06-14T16:09:56;7.03;;;3.20;;
70414;SDS011;57837;52.064;113.478;2023-06-14T16:13:02;6.22;;;2.80;;
70414;SDS011;57837;52.064;113.478;2023-06-14T16:16:06;4.90;;;3.35;;
70414;SDS011;57837;52.064;113.478;2023-06-14T16:19:10;3.90;;;1.95;;
70414;SDS011;57837;52.064;113.478;2023-06-14T16:22:14;4.33;;;2.07;;
70414;SDS011;57837;52.064;113.478;2023-06-14T16:25:19;8.23;;;2.10;;
70414;SDS011;57837;52.064;113.478;2023-06-14T16:28:24;6.57;;;2.30;;
70414;SDS011;57837;52.064;113.478;2023-06-14T16:31:28;9.68;;;2.40;;
70414;SDS011;57837;52.064;113.478;2023-06-14T16:34:33;7.15;;;3.45;;
70414;SDS011;57837;52.064;113.478;2023-06-14T16:37:41;12.97;;;4.60;;
70414;SDS011;57837;52.064;113.478;2023-06-14T16:40:44;8.93;;;4.70;;
70414;SDS011;57837;52.064;113.478;2023-06-14T16:43:48;11.18;;;5.20;;
70414;SDS011;57837;52.064;113.478;2023-06-14T16:46:55;7.07;;;3.33;;
70414;SDS011;57837;52.064;113.478;2023-06-14T16:50:03;6.75;;;2.53;;
70414;SDS011;57837;52.064;113.478;2023-06-14T16:53:08;6.63;;;2.80;;
70414;SDS011;57837;52.064;113.478;2023-06-14T16:56:12;5.60;;;2.53;;
70414;SDS011;57837;52.064;113.478;2023-06-14T16:59:16;7.35;;;3.08;;
70414;SDS011;57837;52.064;113.478;2023-06-14T17:02:20;10.20;;;3.58;;
70414;SDS011;57837;52.064;113.478;2023-06-14T17:05:24;5.22;;;3.00;;
70414;SDS011;57837;52.064;113.478;2023-06-14T17:08:28;6.57;;;3.40;;
70414;SDS011;57837;52.064;113.478;2023-06-14T17:11:36;12.70;;;3.80;;
70414;SDS011;57837;52.064;113.478;2023-06-14T17:14:40;7.45;;;3.00;;
70414;SDS011;57837;52.064;113.478;2023-06-14T17:17:45;8.93;;;3.30;;
70414;SDS011;57837;52.064;113.478;2023-06-14T17:20:49;8.80;;;3.42;;
70414;SDS011;57837;52.064;113.478;2023-06-14T17:23:54;7.53;;;3.60;;
70414;SDS011;57837;52.064;113.478;2023-06-14T17:26:58;5.57;;;3.20;;
70414;SDS011;57837;52.064;113.478;2023-06-14T17:30:02;6.00;;;2.80;;
70414;SDS011;57837;52.064;113.478;2023-06-14T17:33:10;6.70;;;2.63;;
70414;SDS011;57837;52.064;113.478;2023-06-14T17:36:17;9.52;;;5.80;;
70414;SDS011;57837;52.064;113.478;2023-06-14T17:39:21;10.33;;;2.40;;
70414;SDS011;57837;52.064;113.478;2023-06-14T17:42:24;4.10;;;2.13;;
70414;SDS011;57837;52.064;113.478;2023-06-14T17:45:29;9.70;;;2.10;;
70414;SDS011;57837;52.064;113.478;2023-06-14T17:48:33;6.32;;;2.28;;
70414;SDS011;57837;52.064;113.478;2023-06-14T17:51:37;8.45;;;2.20;;
70414;SDS011;57837;52.064;113.478;2023-06-14T17:54:41;3.50;;;2.03;;
70414;SDS011;57837;52.064;113.478;2023-06-14T17:57:45;3.77;;;2.40;;
70414;SDS011;57837;52.064;113.478;2023-06-14T18:00:49;4.05;;;2.10;;
70414;SDS011;57837;52.064;113.478;2023-06-14T18:03:54;4.30;;;2.30;;
70414;SDS011;57837;52.064;113.478;2023-06-14T18:06:58;4.80;;;2.42;;
70414;SDS011;57837;52.064;113.478;2023-06-14T18:10:06;5.43;;;1.93;;
70414;SDS011;57837;52.064;113.478;2023-06-14T18:13:10;6.97;;;2.57;;